createdAt,value
2023-04-16T00:01:26.124Z,7.70
2023-04-16T00:03:52.778Z,7.69
2023-04-16T00:06:19.542Z,7.72
2023-04-16T00:08:46.056Z,7.73
2023-04-16T00:11:12.669Z,7.73
2023-04-16T00:13:39.123Z,7.73
2023-04-16T00:16:05.977Z,7.73
2023-04-16T00:18:32.453Z,7.72
2023-04-16T00:20:59.579Z,7.72
2023-04-16T00:23:26.097Z,7.74
2023-04-16T00:25:53.620Z,7.74
2023-04-16T00:28:20.199Z,7.73
2023-04-16T00:30:46.728Z,7.72
2023-04-16T00:33:13.282Z,7.70
2023-04-16T00:35:39.932Z,7.69
2023-04-16T00:38:06.469Z,7.67
2023-04-16T00:40:33.652Z,7.68
2023-04-16T00:43:00.164Z,7.68
2023-04-16T00:45:27.051Z,7.68
2023-04-16T00:47:53.789Z,7.67
2023-04-16T00:50:20.484Z,7.67
2023-04-16T00:52:48.407Z,7.66
2023-04-16T00:55:17.598Z,7.65
2023-04-16T00:57:45.026Z,7.66
2023-04-16T01:00:12.741Z,7.66
2023-04-16T01:02:39.850Z,7.66
2023-04-16T01:05:06.727Z,7.66
2023-04-16T01:07:33.219Z,7.65
2023-04-16T01:09:59.722Z,7.66
2023-04-16T01:12:26.321Z,7.66
2023-04-16T01:14:53.122Z,7.67
2023-04-16T01:17:19.616Z,7.66
2023-04-16T01:19:46.162Z,7.67
2023-04-16T01:22:12.725Z,7.65
2023-04-16T01:24:40.437Z,7.65
2023-04-16T01:27:09.954Z,7.66
2023-04-16T01:29:36.536Z,7.66
2023-04-16T01:32:03.261Z,7.66
2023-04-16T01:34:35.837Z,7.66
2023-04-16T01:37:03.687Z,7.65
2023-04-16T01:39:30.413Z,7.65
2023-04-16T01:41:57.621Z,7.66
2023-04-16T01:44:24.096Z,7.66
2023-04-16T01:46:50.744Z,7.65
2023-04-16T01:49:17.498Z,7.65
2023-04-16T01:51:43.947Z,7.64
2023-04-16T01:54:10.500Z,7.66
2023-04-16T01:56:37.054Z,7.65
2023-04-16T01:59:03.582Z,7.66
2023-04-16T02:01:36.271Z,7.66
2023-04-16T02:04:03.754Z,7.66
2023-04-16T02:06:31.578Z,7.67
2023-04-16T02:08:58.085Z,7.68
2023-04-16T02:11:26.490Z,7.69
2023-04-16T02:13:53.764Z,7.70
2023-04-16T02:16:20.652Z,7.70
2023-04-16T02:18:52.913Z,7.72
2023-04-16T02:21:21.541Z,7.72
2023-04-16T02:23:51.479Z,7.72
2023-04-16T02:26:21.328Z,7.74
2023-04-16T02:28:49.098Z,7.75
2023-04-16T02:31:19.387Z,7.75
2023-04-16T02:33:47.474Z,7.76
2023-04-16T02:36:13.879Z,7.77
2023-04-16T02:38:40.311Z,7.77
2023-04-16T02:41:07.315Z,7.77
2023-04-16T02:43:34.157Z,7.77
2023-04-16T02:46:01.681Z,7.78
2023-04-16T02:48:28.349Z,7.79
2023-04-16T02:50:54.888Z,7.80
2023-04-16T02:53:21.457Z,7.80
2023-04-16T02:55:55.517Z,7.81
2023-04-16T02:58:24.135Z,7.81
2023-04-16T03:00:51.726Z,7.81
2023-04-16T03:03:18.625Z,7.80
2023-04-16T03:05:45.447Z,7.80
2023-04-16T03:08:11.884Z,7.81
2023-04-16T03:10:38.316Z,7.80
2023-04-16T03:13:05.150Z,7.79
2023-04-16T03:15:31.801Z,7.80
2023-04-16T03:17:58.633Z,7.81
2023-04-16T03:20:25.430Z,7.80
2023-04-16T03:22:53.069Z,7.80
2023-04-16T03:25:19.646Z,7.80
2023-04-16T03:27:46.289Z,7.80
2023-04-16T03:30:14.815Z,7.81
2023-04-16T03:32:41.618Z,7.81
2023-04-16T03:35:09.029Z,7.82
2023-04-16T03:37:37.158Z,7.81
2023-04-16T03:40:05.806Z,7.81
2023-04-16T03:42:32.463Z,7.81
2023-04-16T03:44:59.344Z,7.83
2023-04-16T03:47:26.352Z,7.83
2023-04-16T03:49:56.466Z,7.81
2023-04-16T03:52:22.890Z,7.82
2023-04-16T03:54:49.342Z,7.82
2023-04-16T03:57:25.878Z,7.82
2023-04-16T03:59:56.290Z,7.82
2023-04-16T04:02:24.839Z,7.81
2023-04-16T04:04:51.593Z,7.81
2023-04-16T04:07:18.075Z,7.81
2023-04-16T04:09:44.607Z,7.81
2023-04-16T04:12:11.118Z,7.81
2023-04-16T04:14:40.374Z,7.81
2023-04-16T04:17:08.709Z,7.81
2023-04-16T04:19:35.375Z,7.81
2023-04-16T04:22:03.338Z,7.81
2023-04-16T04:24:29.859Z,7.80
2023-04-16T04:26:57.493Z,7.83
2023-04-16T04:29:27.258Z,7.82
2023-04-16T04:31:55.124Z,7.82
2023-04-16T04:34:23.034Z,7.81
2023-04-16T04:36:49.555Z,7.81
2023-04-16T04:39:16.311Z,7.80
2023-04-16T04:41:43.597Z,7.79
2023-04-16T04:44:10.069Z,7.79
2023-04-16T04:46:36.599Z,7.78
2023-04-16T04:49:03.223Z,7.78
2023-04-16T04:51:31.769Z,7.76
2023-04-16T04:53:58.424Z,7.75
2023-04-16T04:56:24.840Z,7.75
2023-04-16T04:58:51.531Z,7.75
2023-04-16T05:01:19.753Z,7.77
2023-04-16T05:03:46.394Z,7.76
2023-04-16T05:06:13.065Z,7.75
2023-04-16T05:08:39.463Z,7.77
2023-04-16T05:11:05.992Z,7.74
2023-04-16T05:13:32.462Z,7.76
2023-04-16T05:15:59.843Z,7.76
2023-04-16T05:18:26.652Z,7.77
2023-04-16T05:20:53.210Z,7.77
2023-04-16T05:23:19.666Z,7.78
2023-04-16T05:25:46.107Z,7.79
2023-04-16T05:28:12.553Z,7.78
2023-04-16T05:30:39.062Z,7.77
2023-04-16T05:33:05.781Z,7.77
2023-04-16T05:35:32.275Z,7.79
2023-04-16T05:37:58.791Z,7.80
2023-04-16T05:40:25.285Z,7.80
2023-04-16T05:42:51.763Z,7.81
2023-04-16T05:45:18.162Z,7.81
2023-04-16T05:47:44.681Z,7.82
2023-04-16T05:50:11.259Z,7.81
2023-04-16T05:52:38.339Z,7.82
2023-04-16T05:55:05.812Z,7.84
2023-04-16T05:57:33.286Z,7.84
2023-04-16T05:59:59.732Z,7.84
2023-04-16T06:02:26.383Z,7.85
2023-04-16T06:04:52.926Z,7.87
2023-04-16T06:07:19.315Z,7.87
2023-04-16T06:09:45.797Z,7.89
2023-04-16T06:12:12.511Z,7.88
2023-04-16T06:14:38.968Z,7.88
2023-04-16T06:17:05.475Z,7.91
2023-04-16T06:19:31.908Z,7.91
2023-04-16T06:21:58.424Z,7.93
2023-04-16T06:24:24.935Z,7.96
2023-04-16T06:26:51.485Z,7.96
2023-04-16T06:29:17.999Z,7.96
2023-04-16T06:31:44.595Z,7.97
2023-04-16T06:34:11.094Z,7.96
2023-04-16T06:36:37.716Z,7.99
2023-04-16T06:39:04.239Z,7.98
2023-04-16T06:41:30.968Z,8.01
2023-04-16T06:43:57.436Z,8.01
2023-04-16T06:46:24.008Z,8.01
2023-04-16T06:48:50.584Z,8.02
2023-04-16T06:51:17.085Z,8.05
2023-04-16T06:53:43.580Z,8.06
2023-04-16T06:56:10.085Z,8.08
2023-04-16T06:58:36.562Z,8.09
2023-04-16T07:01:03.108Z,8.10
2023-04-16T07:03:29.748Z,8.12
2023-04-16T07:05:56.862Z,8.11
2023-04-16T07:08:23.484Z,8.12
2023-04-16T07:10:50.027Z,8.13
2023-04-16T07:13:18.471Z,8.13
2023-04-16T07:15:44.939Z,8.17
2023-04-16T07:18:11.454Z,8.16
2023-04-16T07:20:37.960Z,8.18
2023-04-16T07:23:04.564Z,8.17
2023-04-16T07:25:30.967Z,8.19
2023-04-16T07:27:57.473Z,8.20
2023-04-16T07:30:24.168Z,8.23
2023-04-16T07:32:51.454Z,8.23
2023-04-16T07:35:18.035Z,8.23
2023-04-16T07:37:44.986Z,8.26
2023-04-16T07:40:11.977Z,8.29
2023-04-16T07:42:38.439Z,8.29
2023-04-16T07:45:05.482Z,8.31
2023-04-16T07:47:32.706Z,8.32
2023-04-16T07:49:59.162Z,8.32
2023-04-16T07:52:26.596Z,8.35
2023-04-16T07:54:53.244Z,8.37
2023-04-16T07:57:19.744Z,8.38
2023-04-16T07:59:46.201Z,8.40
2023-04-16T08:02:15.076Z,8.44
2023-04-16T08:04:42.867Z,8.48
2023-04-16T08:07:09.616Z,8.49
2023-04-16T08:09:36.418Z,8.49
2023-04-16T08:12:03.631Z,8.50
2023-04-16T08:14:30.749Z,8.53
2023-04-16T08:16:57.473Z,8.55
2023-04-16T08:19:23.988Z,8.57
2023-04-16T08:21:50.739Z,8.60
2023-04-16T08:24:17.210Z,8.60
2023-04-16T08:26:43.659Z,8.60
2023-04-16T08:29:10.162Z,8.60
2023-04-16T08:31:36.865Z,8.63
2023-04-16T08:34:03.363Z,8.67
2023-04-16T08:36:29.784Z,8.68
2023-04-16T08:38:56.349Z,8.71
2023-04-16T08:41:24.737Z,8.73
2023-04-16T08:43:55.847Z,8.75
2023-04-16T08:46:26.394Z,8.76
2023-04-16T08:48:58.966Z,8.78
2023-04-16T08:51:28.462Z,8.80
2023-04-16T08:54:02.673Z,8.81
2023-04-16T08:56:31.229Z,8.81
2023-04-16T08:58:58.530Z,8.88
2023-04-16T09:01:26.805Z,8.93
2023-04-16T09:03:54.109Z,8.99
2023-04-16T09:06:20.822Z,9.05
2023-04-16T09:08:48.103Z,9.09
2023-04-16T09:11:17.975Z,9.12
2023-04-16T09:13:45.957Z,9.14
2023-04-16T09:16:13.782Z,9.13
2023-04-16T09:18:41.239Z,9.18
2023-04-16T09:21:10.946Z,9.25
2023-04-16T09:23:41.361Z,9.31
2023-04-16T09:26:07.778Z,9.35
2023-04-16T09:28:48.836Z,9.40
2023-04-16T09:31:17.107Z,9.42
2023-04-16T09:34:00.317Z,9.44
2023-04-16T09:36:27.787Z,9.44
2023-04-16T09:38:56.950Z,9.40
2023-04-16T09:41:29.240Z,9.42
2023-04-16T09:43:59.719Z,9.45
2023-04-16T09:46:43.655Z,9.47
2023-04-16T09:49:17.305Z,9.53
2023-04-16T09:51:50.932Z,9.54
2023-04-16T09:54:17.398Z,9.53
2023-04-16T09:56:45.861Z,9.53
2023-04-16T09:59:19.253Z,9.54
2023-04-16T10:02:14.698Z,9.54
2023-04-16T10:04:52.058Z,9.58
2023-04-16T10:07:19.585Z,9.62
2023-04-16T10:09:48.490Z,9.63
2023-04-16T10:12:16.069Z,9.65
2023-04-16T10:14:42.853Z,9.62
2023-04-16T10:17:09.850Z,9.62
2023-04-16T10:19:36.987Z,9.64
2023-04-16T10:22:04.329Z,9.70
2023-04-16T10:24:32.396Z,9.80
2023-04-16T10:26:59.409Z,9.83
2023-04-16T10:29:28.128Z,9.82
2023-04-16T10:31:56.574Z,9.84
2023-04-16T10:34:24.290Z,9.85
2023-04-16T10:36:52.878Z,9.89
2023-04-16T10:39:22.476Z,9.97
2023-04-16T10:41:49.627Z,9.98
2023-04-16T10:44:18.436Z,9.99
2023-04-16T10:46:50.458Z,10.03
2023-04-16T10:49:23.563Z,10.05
2023-04-16T10:51:59.983Z,10.07
2023-04-16T10:54:28.444Z,10.08
2023-04-16T10:57:04.256Z,10.03
2023-04-16T10:59:34.829Z,10.01
2023-04-16T11:02:06.568Z,10.04
2023-04-16T11:04:37.446Z,10.06
2023-04-16T11:07:19.242Z,10.07
2023-04-16T11:09:56.482Z,10.14
2023-04-16T11:12:27.203Z,10.15
2023-04-16T11:14:58.111Z,10.19
2023-04-16T11:17:29.351Z,10.30
2023-04-16T11:19:56.489Z,10.39
2023-04-16T11:22:27.007Z,10.40
2023-04-16T11:24:55.773Z,10.43
2023-04-16T11:27:26.324Z,10.44
2023-04-16T11:30:11.467Z,10.46
2023-04-16T11:32:38.764Z,10.51
2023-04-16T11:35:14.209Z,10.45
2023-04-16T11:37:41.931Z,10.42
2023-04-16T11:40:09.648Z,10.44
2023-04-16T11:42:37.533Z,10.48
2023-04-16T11:45:04.870Z,10.50
2023-04-16T11:47:31.780Z,10.51
2023-04-16T11:50:15.015Z,10.54
2023-04-16T11:52:41.498Z,10.53
2023-04-16T11:55:08.254Z,10.57
2023-04-16T11:57:34.680Z,10.59
2023-04-16T12:00:03.685Z,10.59
2023-04-16T12:02:46.085Z,10.56
2023-04-16T12:05:32.238Z,10.57
2023-04-16T12:08:00.613Z,10.63
2023-04-16T12:10:27.525Z,10.66
2023-04-16T12:12:54.122Z,10.67
2023-04-16T12:15:20.905Z,10.69
2023-04-16T12:17:47.762Z,10.74
2023-04-16T12:20:15.760Z,10.76
2023-04-16T12:22:47.830Z,10.80
2023-04-16T12:25:16.768Z,10.84
2023-04-16T12:27:46.335Z,10.81
2023-04-16T12:30:23.605Z,10.82
2023-04-16T12:32:52.459Z,10.83
2023-04-16T12:35:33.400Z,10.88
2023-04-16T12:38:00.504Z,10.88
2023-04-16T12:40:27.441Z,10.91
2023-04-16T12:42:53.931Z,10.98
2023-04-16T12:45:20.680Z,10.96
2023-04-16T12:47:47.363Z,10.94
2023-04-16T12:50:13.877Z,10.93
2023-04-16T12:52:40.392Z,10.94
2023-04-16T12:55:07.212Z,10.91
2023-04-16T12:57:33.672Z,10.89
2023-04-16T13:00:00.216Z,10.91
2023-04-16T13:02:27.818Z,10.96
2023-04-16T13:04:54.821Z,11.00
2023-04-16T13:07:21.437Z,10.98
2023-04-16T13:09:47.956Z,11.03
2023-04-16T13:12:14.441Z,11.10
2023-04-16T13:14:43.360Z,11.11
2023-04-16T13:17:11.466Z,11.10
2023-04-16T13:19:37.955Z,11.17
2023-04-16T13:22:04.458Z,11.17
2023-04-16T13:24:30.869Z,11.17
2023-04-16T13:26:57.402Z,11.20
2023-04-16T13:29:23.881Z,11.25
2023-04-16T13:31:50.418Z,11.24
2023-04-16T13:34:17.028Z,11.25
2023-04-16T13:36:43.567Z,11.31
2023-04-16T13:39:12.772Z,11.39
2023-04-16T13:41:39.479Z,11.38
2023-04-16T13:44:06.818Z,11.37
2023-04-16T13:46:33.820Z,11.36
2023-04-16T13:49:00.517Z,11.35
2023-04-16T13:51:29.681Z,11.39
2023-04-16T13:53:56.308Z,11.41
2023-04-16T13:56:22.955Z,11.38
2023-04-16T13:58:49.653Z,11.42
2023-04-16T14:01:17.161Z,11.42
2023-04-16T14:03:43.860Z,11.43
2023-04-16T14:06:10.532Z,11.51
2023-04-16T14:08:38.225Z,11.52
2023-04-16T14:11:06.323Z,11.56
2023-04-16T14:13:32.907Z,11.56
2023-04-16T14:15:59.435Z,11.57
2023-04-16T14:18:25.885Z,11.61
2023-04-16T14:20:52.343Z,11.63
2023-04-16T14:23:18.761Z,11.75
2023-04-16T14:25:45.272Z,11.85
2023-04-16T14:28:12.984Z,11.98
2023-04-16T14:30:40.903Z,12.09
2023-04-16T14:33:07.428Z,12.09
2023-04-16T14:35:34.165Z,12.19
2023-04-16T14:38:47.320Z,12.22
2023-04-16T14:41:14.191Z,12.15
2023-04-16T14:43:43.645Z,12.10
2023-04-16T14:46:11.075Z,12.05
2023-04-16T14:48:46.975Z,11.99
2023-04-16T14:51:13.542Z,11.95
2023-04-16T14:53:40.864Z,11.94
2023-04-16T14:56:07.676Z,12.00
2023-04-16T14:58:37.252Z,12.13
2023-04-16T15:01:05.342Z,12.21
2023-04-16T15:03:32.725Z,12.28
2023-04-16T15:05:59.633Z,12.24
2023-04-16T15:08:29.257Z,12.18
2023-04-16T15:10:55.876Z,12.17
2023-04-16T15:13:22.459Z,12.25
2023-04-16T15:15:49.635Z,12.34
2023-04-16T15:18:16.708Z,12.33
2023-04-16T15:20:43.203Z,12.32
2023-04-16T15:23:09.614Z,12.37
2023-04-16T15:25:36.125Z,12.38
2023-04-16T15:28:02.754Z,12.41
2023-04-16T15:30:30.276Z,12.38
2023-04-16T15:32:56.793Z,12.31
2023-04-16T15:35:26.137Z,12.26
2023-04-16T15:37:52.764Z,12.22
2023-04-16T15:40:20.509Z,12.13
2023-04-16T15:42:46.976Z,12.07
2023-04-16T15:45:13.454Z,12.07
2023-04-16T15:47:41.624Z,11.97
2023-04-16T15:50:08.651Z,11.90
2023-04-16T15:52:36.261Z,11.97
2023-04-16T15:55:04.361Z,11.90
2023-04-16T15:57:31.359Z,11.79
2023-04-16T16:00:06.575Z,11.79
2023-04-16T16:02:34.138Z,11.76
2023-04-16T16:05:00.935Z,11.77
2023-04-16T16:07:27.596Z,11.79
2023-04-16T16:09:54.137Z,11.79
2023-04-16T16:12:20.667Z,11.73
2023-04-16T16:14:47.683Z,11.72
2023-04-16T16:17:14.178Z,11.65
2023-04-16T16:19:40.677Z,11.67
2023-04-16T16:22:07.732Z,11.57
2023-04-16T16:24:34.175Z,11.58
2023-04-16T16:27:01.621Z,11.54
2023-04-16T16:29:28.190Z,11.61
2023-04-16T16:31:54.667Z,11.56
2023-04-16T16:34:21.617Z,11.50
2023-04-16T16:36:48.580Z,11.42
2023-04-16T16:39:15.010Z,11.48
2023-04-16T16:41:42.122Z,11.49
2023-04-16T16:44:09.111Z,11.58
2023-04-16T16:46:44.600Z,11.58
2023-04-16T16:49:15.594Z,11.56
2023-04-16T16:51:42.317Z,11.51
2023-04-16T16:54:08.782Z,11.47
2023-04-16T16:56:35.313Z,11.39
2023-04-16T16:59:02.161Z,11.27
2023-04-16T17:01:29.676Z,11.15
2023-04-16T17:03:56.511Z,11.12
2023-04-16T17:06:23.969Z,11.11
2023-04-16T17:08:50.506Z,11.10
2023-04-16T17:11:17.190Z,11.05
2023-04-16T17:13:43.710Z,11.05
2023-04-16T17:16:10.337Z,10.95
2023-04-16T17:18:37.169Z,10.89
2023-04-16T17:21:03.696Z,10.82
2023-04-16T17:23:30.154Z,10.75
2023-04-16T17:25:59.109Z,10.68
2023-04-16T17:28:27.406Z,10.61
2023-04-16T17:30:54.171Z,10.56
2023-04-16T17:33:20.733Z,10.53
2023-04-16T17:35:47.364Z,10.50
2023-04-16T17:38:13.845Z,10.50
2023-04-16T17:40:40.364Z,10.47
2023-04-16T17:43:06.820Z,10.51
2023-04-16T17:45:33.591Z,10.50
2023-04-16T17:48:00.771Z,10.47
2023-04-16T17:50:27.970Z,10.50
2023-04-16T17:52:54.406Z,10.46
2023-04-16T17:55:21.073Z,10.39
2023-04-16T17:57:47.533Z,10.36
2023-04-16T18:00:14.482Z,10.35
2023-04-16T18:02:41.400Z,10.33
2023-04-16T18:05:08.899Z,10.26
2023-04-16T18:07:36.402Z,10.22
2023-04-16T18:10:02.949Z,10.21
2023-04-16T18:12:29.418Z,10.15
2023-04-16T18:14:55.869Z,10.09
2023-04-16T18:17:22.790Z,9.93
2023-04-16T18:19:49.324Z,9.89
2023-04-16T18:22:15.836Z,9.86
2023-04-16T18:24:42.421Z,9.83
2023-04-16T18:27:08.974Z,9.83
2023-04-16T18:29:35.571Z,9.75
2023-04-16T18:32:04.285Z,9.72
2023-04-16T18:34:31.686Z,9.70
2023-04-16T18:36:58.237Z,9.60
2023-04-16T18:39:24.806Z,9.54
2023-04-16T18:41:51.187Z,9.50
2023-04-16T18:44:19.537Z,9.49
2023-04-16T18:46:46.407Z,9.45
2023-04-16T18:49:13.468Z,9.44
2023-04-16T18:51:41.892Z,9.45
2023-04-16T18:54:08.393Z,9.46
2023-04-16T18:56:34.958Z,9.40
2023-04-16T18:59:01.730Z,9.35
2023-04-16T19:01:28.392Z,9.25
2023-04-16T19:03:54.926Z,9.23
2023-04-16T19:06:21.420Z,9.22
2023-04-16T19:08:47.883Z,9.22
2023-04-16T19:11:14.443Z,9.17
2023-04-16T19:13:40.870Z,9.11
2023-04-16T19:16:11.284Z,9.08
2023-04-16T19:18:38.996Z,9.05
2023-04-16T19:21:06.934Z,9.02
2023-04-16T19:23:33.415Z,8.99
2023-04-16T19:26:01.363Z,8.98
2023-04-16T19:28:28.351Z,8.97
2023-04-16T19:30:55.232Z,8.99
2023-04-16T19:33:21.769Z,8.96
2023-04-16T19:35:48.263Z,8.95
2023-04-16T19:38:14.784Z,8.92
2023-04-16T19:40:45.343Z,8.94
2023-04-16T19:43:12.227Z,8.90
2023-04-16T19:45:52.432Z,8.91
2023-04-16T19:48:22.180Z,8.92
2023-04-16T19:50:48.812Z,8.91
2023-04-16T19:53:17.168Z,8.92
2023-04-16T19:55:43.780Z,8.90
2023-04-16T19:58:10.535Z,8.86
2023-04-16T20:00:38.478Z,8.84
2023-04-16T20:03:05.539Z,8.83
2023-04-16T20:05:31.991Z,8.82
2023-04-16T20:07:58.503Z,8.82
2023-04-16T20:10:25.343Z,8.82
2023-04-16T20:12:52.086Z,8.81
2023-04-16T20:15:19.087Z,8.79
2023-04-16T20:17:45.769Z,8.79
2023-04-16T20:20:12.467Z,8.81
2023-04-16T20:22:39.819Z,8.83
2023-04-16T20:25:07.567Z,8.82
2023-04-16T20:27:34.768Z,8.80
2023-04-16T20:30:02.362Z,8.79
2023-04-16T20:32:28.863Z,8.76
2023-04-16T20:34:55.670Z,8.77
2023-04-16T20:37:22.476Z,8.76
2023-04-16T20:39:50.154Z,8.74
2023-04-16T20:42:16.700Z,8.74
2023-04-16T20:44:50.112Z,8.71
2023-04-16T20:47:17.209Z,8.66
2023-04-16T20:49:47.364Z,8.64
2023-04-16T20:52:14.719Z,8.66
2023-04-16T20:54:41.521Z,8.68
2023-04-16T20:57:08.079Z,8.66
2023-04-16T20:59:34.691Z,8.62
2023-04-16T21:02:01.429Z,8.58
2023-04-16T21:04:28.136Z,8.54
2023-04-16T21:06:54.913Z,8.51
2023-04-16T21:09:21.869Z,8.49
2023-04-16T21:11:48.472Z,8.43
2023-04-16T21:14:15.410Z,8.42
2023-04-16T21:16:41.887Z,8.41
2023-04-16T21:19:08.842Z,8.43
2023-04-16T21:21:35.618Z,8.45
2023-04-16T21:24:02.157Z,8.48
2023-04-16T21:26:28.726Z,8.47
2023-04-16T21:28:55.387Z,8.44
2023-04-16T21:31:22.036Z,8.41
2023-04-16T21:33:48.667Z,8.41
2023-04-16T21:36:15.448Z,8.41
2023-04-16T21:38:41.971Z,8.42
2023-04-16T21:41:08.505Z,8.41
2023-04-16T21:43:34.964Z,8.39
2023-04-16T21:46:01.473Z,8.34
2023-04-16T21:48:28.573Z,8.31
2023-04-16T21:50:59.731Z,8.29
2023-04-16T21:53:28.073Z,8.27
2023-04-16T21:55:54.681Z,8.24
2023-04-16T21:58:21.107Z,8.22
2023-04-16T22:00:47.574Z,8.22
2023-04-16T22:03:14.455Z,8.22
2023-04-16T22:05:40.980Z,8.19
2023-04-16T22:08:23.216Z,8.20
2023-04-16T22:10:51.300Z,8.21
2023-04-16T22:13:18.012Z,8.20
2023-04-16T22:15:44.568Z,8.18
2023-04-16T22:18:11.384Z,8.18
2023-04-16T22:20:39.042Z,8.17
2023-04-16T22:23:06.671Z,8.16
2023-04-16T22:25:33.470Z,8.12
2023-04-16T22:28:01.398Z,8.12
2023-04-16T22:30:28.088Z,8.11
2023-04-16T22:32:54.621Z,8.12
2023-04-16T22:35:21.233Z,8.12
2023-04-16T22:37:47.739Z,8.12
2023-04-16T22:40:14.777Z,8.11
2023-04-16T22:42:41.551Z,8.09
2023-04-16T22:45:08.773Z,8.08
2023-04-16T22:47:35.293Z,8.08
2023-04-16T22:50:01.865Z,8.05
2023-04-16T22:52:28.416Z,8.07
2023-04-16T22:54:54.854Z,8.06
2023-04-16T22:57:24.732Z,8.04
2023-04-16T22:59:52.451Z,8.02
2023-04-16T23:02:20.156Z,8.02
2023-04-16T23:04:47.671Z,8.03
2023-04-16T23:07:14.846Z,7.98
2023-04-16T23:09:41.352Z,7.97
2023-04-16T23:12:08.171Z,8.00
2023-04-16T23:14:35.168Z,8.00
2023-04-16T23:17:01.819Z,8.01
2023-04-16T23:19:28.888Z,7.99
2023-04-16T23:21:55.468Z,7.96
2023-04-16T23:24:21.972Z,7.96
2023-04-16T23:26:48.613Z,7.95
2023-04-16T23:29:15.101Z,7.92
2023-04-16T23:31:41.671Z,7.89
2023-04-16T23:34:08.153Z,7.89
2023-04-16T23:36:34.715Z,7.91
2023-04-16T23:39:01.220Z,7.92
2023-04-16T23:41:27.712Z,7.93
2023-04-16T23:43:54.241Z,7.94
2023-04-16T23:46:20.862Z,7.93
2023-04-16T23:48:47.356Z,7.90
2023-04-16T23:51:13.859Z,7.88
2023-04-16T23:53:40.772Z,7.86
2023-04-16T23:56:10.946Z,7.86
2023-04-16T23:58:37.578Z,7.86
